Time;durP1;ratioP1;P1;durP2;ratioP2;P2;SDS_P1;SDS_P2;PMS_P1;PMS_P2;Temp;Humidity;BMP_temperature;BMP_pressure;BME280_temperature;BME280_humidity;BME280_pressure;Samples;Min_cycle;Max_cycle;Signal;HPM_P1;HPM_P2
2022/09/27 00:01:46;;;;;;;7.38;1.50;;;;;;;10.27;100.00;99365.50;4892179;29;20533;-81
2022/09/27 00:04:14;;;;;;;6.07;1.35;;;;;;;10.25;100.00;99370.78;4859472;29;20525;-79
2022/09/27 00:06:43;;;;;;;7.63;1.13;;;;;;;10.22;100.00;99368.19;4890719;29;20044;-79
2022/09/27 00:09:14;;;;;;;13.27;1.10;;;;;;;10.20;100.00;99366.50;4893435;29;20044;-79
2022/09/27 00:11:43;;;;;;;6.97;1.55;;;;;;;10.18;100.00;99368.31;4885852;29;20040;-80
2022/09/27 00:14:13;;;;;;;6.78;1.25;;;;;;;10.14;100.00;99368.34;4893738;29;20040;-80
2022/09/27 00:16:43;;;;;;;3.97;1.55;;;;;;;10.14;100.00;99373.59;4847432;29;20504;-80
2022/09/27 00:19:14;;;;;;;6.05;1.25;;;;;;;10.15;100.00;99370.09;4902102;29;20083;-80
2022/09/27 00:21:44;;;;;;;6.78;1.67;;;;;;;10.15;100.00;99370.09;4907710;29;20402;-80
2022/09/27 00:24:14;;;;;;;6.72;1.30;;;;;;;10.16;100.00;99373.59;4873245;29;20041;-79
2022/09/27 00:26:42;;;;;;;7.55;1.20;;;;;;;10.15;100.00;99372.72;4868897;29;20040;-81
2022/09/27 00:29:11;;;;;;;6.68;1.27;;;;;;;10.17;100.00;99377.06;4894301;29;20063;-79
2022/09/27 00:31:40;;;;;;;8.05;1.38;;;;;;;10.19;100.00;99377.91;4880911;29;20521;-80
2022/09/27 00:34:19;;;;;;;3.53;1.05;;;;;;;10.20;100.00;99383.16;4864551;29;20044;-79
2022/09/27 00:36:49;;;;;;;4.40;1.08;;;;;;;10.18;100.00;99374.41;4910815;29;20052;-80
2022/09/27 00:39:17;;;;;;;10.45;1.60;;;;;;;10.18;100.00;99378.81;4890285;29;20040;-80
2022/09/27 00:41:46;;;;;;;5.68;0.90;;;;;;;10.17;100.00;99382.34;4887753;29;20051;-79
2022/09/27 00:44:23;;;;;;;6.07;1.23;;;;;;;10.14;100.00;99391.19;4890300;29;20043;-80
2022/09/27 00:47:19;;;;;;;2.42;1.05;;;;;;;10.12;100.00;99391.19;4850619;29;20060;-80
2022/09/27 00:49:52;;;;;;;4.47;0.90;;;;;;;10.11;100.00;99383.31;4883863;29;20506;-80
2022/09/27 00:52:42;;;;;;;8.45;1.33;;;;;;;10.11;100.00;99376.31;4890481;29;20279;-80
2022/09/27 00:55:16;;;;;;;5.25;1.08;;;;;;;10.12;100.00;99382.44;4895032;29;20051;-80
2022/09/27 00:57:46;;;;;;;4.95;1.10;;;;;;;10.12;100.00;99388.56;4888558;29;20044;-80
2022/09/27 01:00:15;;;;;;;3.47;0.73;;;;;;;10.14;100.00;99393.81;4881629;29;20040;-81
2022/09/27 01:02:49;;;;;;;1.77;0.93;;;;;;;10.14;100.00;99393.81;4849721;29;20044;-81
2022/09/27 01:05:24;;;;;;;5.85;1.30;;;;;;;10.14;100.00;99399.94;4877051;29;20158;-81
2022/09/27 01:07:55;;;;;;;5.57;1.23;;;;;;;10.10;100.00;99390.34;4907265;29;20263;-79
2022/09/27 01:10:26;;;;;;;;;;;;;;;10.08;100.00;99383.41;4877643;29;20040;-81
2022/09/27 01:13:17;;;;;;;2.88;1.08;;;;;;;10.05;100.00;99386.94;4886716;29;19962;-80
2022/09/27 01:15:56;;;;;;;5.22;1.40;;;;;;;10.07;100.00;99377.25;4875551;29;20067;-80
2022/09/27 01:18:41;;;;;;;3.63;1.70;;;;;;;10.09;100.00;99374.59;4860620;29;20054;-80
2022/09/27 01:21:40;;;;;;;4.47;0.90;;;;;;;10.08;100.00;99368.47;4878233;29;20509;-81
2022/09/27 01:24:40;;;;;;;3.60;1.20;;;;;;;10.09;100.00;99378.13;4892990;29;20059;-79
2022/09/27 01:27:40;;;;;;;4.68;1.17;;;;;;;10.11;100.00;99373.69;4893580;29;20057;-80
2022/09/27 01:30:21;;;;;;;5.35;1.10;;;;;;;10.10;100.00;99387.72;4878975;29;20048;-80
2022/09/27 01:33:06;;;;;;;4.22;0.95;;;;;;;10.06;100.00;99391.31;4860011;29;21363;-79
2022/09/27 01:35:42;;;;;;;6.78;1.27;;;;;;;10.03;100.00;99382.59;4898845;29;20053;-80
2022/09/27 01:38:22;;;;;;;2.75;1.00;;;;;;;9.98;100.00;99372.19;4887505;29;20258;-80
2022/09/27 01:41:03;;;;;;;2.08;1.10;;;;;;;10.01;100.00;99369.47;4892781;29;20306;-80
2022/09/27 01:44:06;;;;;;;2.80;0.90;;;;;;;10.04;100.00;99372.06;4878644;29;20066;-79
2022/09/27 01:46:49;;;;;;;5.22;1.17;;;;;;;10.06;100.00;99375.53;4901912;29;20048;-80
2022/09/27 01:49:56;;;;;;;3.72;1.02;;;;;;;10.04;100.00;99369.44;4865474;29;20322;-80
2022/09/27 01:52:32;;;;;;;2.65;0.93;;;;;;;10.03;100.00;99367.66;4879710;29;20047;-80
2022/09/27 01:55:05;;;;;;;3.60;1.00;;;;;;;10.01;100.00;99373.88;4876662;29;20067;-80
2022/09/27 01:57:54;;;;;;;3.40;1.15;;;;;;;10.00;100.00;99391.44;4862979;29;20044;-80
2022/09/27 02:00:25;;;;;;;9.30;1.08;;;;;;;9.97;100.00;99372.19;4868963;29;20041;-81
2022/09/27 02:03:00;;;;;;;3.22;1.13;;;;;;;9.95;100.00;99375.72;4874474;29;20164;-80
2022/09/27 02:05:53;;;;;;;2.55;1.17;;;;;;;9.91;100.00;99376.66;4861343;29;20067;-80
2022/09/27 02:08:42;;;;;;;4.72;1.17;;;;;;;9.87;100.00;99375.00;4859313;29;20584;-80
2022/09/27 02:11:23;;;;;;;2.30;0.70;;;;;;;9.83;100.00;99378.56;4863156;29;20538;-79
2022/09/27 02:14:26;;;;;;;2.67;0.90;;;;;;;9.80;100.00;99380.38;4874485;29;20068;-79
2022/09/27 02:17:10;;;;;;;6.93;1.23;;;;;;;9.77;100.00;99370.75;4886690;29;20052;-79
2022/09/27 02:20:10;;;;;;;5.45;1.60;;;;;;;9.74;100.00;99362.94;4843529;29;20160;-79
2022/09/27 02:23:22;;;;;;;5.65;1.08;;;;;;;9.71;100.00;99376.13;4870506;29;20462;-79
2022/09/27 02:26:16;;;;;;;2.83;1.17;;;;;;;9.68;100.00;99389.34;4887072;29;20036;-80
2022/09/27 02:29:15;;;;;;;7.32;1.40;;;;;;;9.68;100.00;99377.06;4886455;29;20118;-79
2022/09/27 02:31:49;;;;;;;8.38;1.42;;;;;;;9.69;100.00;99383.19;4875064;29;20335;-80
2022/09/27 02:34:23;;;;;;;8.30;1.33;;;;;;;9.69;100.00;99378.78;4856707;29;20130;-81
2022/09/27 02:36:52;;;;;;;4.97;2.33;;;;;;;9.69;100.00;99380.56;4826835;29;20055;-79
2022/09/27 02:39:21;;;;;;;3.25;1.27;;;;;;;9.70;100.00;99383.16;4848020;29;20037;-81
2022/09/27 02:41:58;;;;;;;3.92;1.05;;;;;;;9.71;100.00;99379.63;4866169;29;20052;-80
2022/09/27 02:44:28;;;;;;;6.03;1.10;;;;;;;9.70;100.00;99377.91;4882782;29;20052;-80
2022/09/27 02:47:35;;;;;;;5.28;1.20;;;;;;;9.70;100.00;99370.00;4851647;29;20169;-80
2022/09/27 02:50:39;;;;;;;2.75;1.13;;;;;;;9.68;100.00;99377.06;4867254;29;20044;-80
2022/09/27 02:53:24;;;;;;;2.03;0.98;;;;;;;9.65;100.00;99369.22;4892100;29;20505;-80
2022/09/27 02:56:05;;;;;;;8.07;1.25;;;;;;;9.65;100.00;99381.50;4896146;29;20048;-79
2022/09/27 02:59:20;;;;;;;6.22;1.02;;;;;;;9.64;100.00;99387.66;4900919;29;20449;-79
2022/09/27 03:02:12;;;;;;;9.32;1.10;;;;;;;9.62;100.00;99382.44;4882787;29;20536;-79
2022/09/27 03:05:12;;;;;;;2.55;1.00;;;;;;;9.59;100.00;99385.09;4903960;29;20060;-79
2022/09/27 03:07:41;;;;;;;2.90;0.80;;;;;;;9.59;100.00;99382.47;4840558;29;20059;-79
2022/09/27 03:10:22;;;;;;;5.35;1.20;;;;;;;9.57;100.00;99379.00;4876570;29;20067;-79
2022/09/27 03:12:51;;;;;;;5.57;0.90;;;;;;;9.56;100.00;99375.50;4883406;29;20040;-79
2022/09/27 03:15:19;;;;;;;4.85;1.00;;;;;;;9.57;100.00;99371.13;4879054;29;20055;-82
2022/09/27 03:18:11;;;;;;;4.38;1.20;;;;;;;9.56;100.00;99378.16;4881655;29;20052;-79
2022/09/27 03:20:57;;;;;;;4.15;1.02;;;;;;;9.56;100.00;99369.38;4879944;29;20045;-79
2022/09/27 03:23:26;;;;;;;4.53;1.20;;;;;;;9.54;100.00;99377.28;4863719;29;20071;-79
2022/09/27 03:25:55;;;;;;;3.00;1.20;;;;;;;9.55;100.00;99384.28;4866719;29;20432;-81
2022/09/27 03:28:24;;;;;;;5.68;1.52;;;;;;;9.54;100.00;99389.56;4882635;29;20049;-81
2022/09/27 03:30:53;;;;;;;4.72;0.82;;;;;;;9.52;100.00;99378.19;4902705;29;20384;-79
2022/09/27 03:33:47;;;;;;;5.30;1.65;;;;;;;9.50;100.00;99374.72;4897436;29;20163;-79
2022/09/27 03:36:16;;;;;;;4.43;1.08;;;;;;;9.49;100.00;99368.63;4895525;29;20048;-79
2022/09/27 03:38:44;;;;;;;4.20;1.05;;;;;;;9.50;100.00;99364.22;4832895;29;20041;-79
2022/09/27 03:41:16;;;;;;;2.63;1.00;;;;;;;9.49;100.00;99362.47;4839805;29;20052;-81
2022/09/27 03:43:45;;;;;;;6.53;1.52;;;;;;;9.49;100.00;99363.34;4891950;29;20117;-82
2022/09/27 03:46:13;;;;;;;6.63;1.23;;;;;;;9.46;100.00;99367.78;4895994;29;20067;-79
2022/09/27 03:48:43;;;;;;;4.07;1.10;;;;;;;9.45;100.00;99368.66;4868135;29;20362;-80
2022/09/27 03:51:12;;;;;;;3.08;1.40;;;;;;;9.45;100.00;99371.28;4879941;29;20508;-79
2022/09/27 03:53:41;;;;;;;3.45;0.90;;;;;;;9.43;100.00;99366.06;4843374;29;20235;-80
2022/09/27 03:56:10;;;;;;;11.05;1.67;;;;;;;9.42;100.00;99368.72;4884711;29;20048;-80
2022/09/27 03:58:39;;;;;;;1.67;0.88;;;;;;;9.40;100.00;99370.53;4876087;29;20132;-79
2022/09/27 04:01:08;;;;;;;5.57;1.15;;;;;;;9.39;100.00;99374.03;4877629;29;20051;-80
2022/09/27 04:03:38;;;;;;;5.40;1.15;;;;;;;9.37;100.00;99379.31;4889775;29;20497;-79
2022/09/27 04:06:25;;;;;;;8.60;1.70;;;;;;;9.35;100.00;99378.47;4876117;29;20457;-79
2022/09/27 04:08:54;;;;;;;7.53;1.10;;;;;;;9.33;100.00;99367.97;4858467;29;20040;-80
2022/09/27 04:11:28;;;;;;;6.30;1.10;;;;;;;9.33;100.00;99372.38;4855374;29;20125;-79
2022/09/27 04:13:57;;;;;;;8.52;1.52;;;;;;;9.35;100.00;99395.09;4878605;29;20039;-80
2022/09/27 04:16:26;;;;;;;4.70;1.10;;;;;;;9.36;100.00;99393.34;4873364;29;20045;-80
2022/09/27 04:19:26;;;;;;;3.38;0.90;;;;;;;9.34;100.00;99403.91;4884057;29;20264;-80
2022/09/27 04:22:09;;;;;;;6.38;1.60;;;;;;;9.35;100.00;99395.09;4881549;29;20036;-81
2022/09/27 04:24:38;;;;;;;6.10;1.20;;;;;;;9.35;100.00;99387.22;4863575;29;20078;-81
2022/09/27 04:27:25;;;;;;;5.22;0.98;;;;;;;9.33;100.00;99399.50;4854990;29;20263;-81
2022/09/27 04:29:54;;;;;;;3.08;1.25;;;;;;;9.31;100.00;99409.19;4874368;29;20047;-82
2022/09/27 04:32:43;;;;;;;3.78;0.98;;;;;;;9.30;100.00;99396.06;4878599;29;20048;-79
2022/09/27 04:38:21;;;;;;;3.25;0.98;;;;;;;9.30;100.00;99415.34;4870150;29;20436;-80
2022/09/27 04:40:50;;;;;;;3.72;1.27;;;;;;;9.34;100.00;99417.03;4857533;29;20044;-80
2022/09/27 04:43:19;;;;;;;3.22;0.80;;;;;;;9.35;100.00;99408.25;4868091;29;20260;-80
2022/09/27 04:45:47;;;;;;;3.55;1.20;;;;;;;9.34;100.00;99400.41;4880970;29;20040;-80
2022/09/27 04:48:15;;;;;;;4.20;1.00;;;;;;;9.33;100.00;99394.25;4890739;29;20168;-81
2022/09/27 04:50:44;;;;;;;2.50;0.90;;;;;;;9.30;100.00;99396.94;4879557;29;20041;-80
2022/09/27 04:53:14;;;;;;;6.93;1.30;;;;;;;9.27;100.00;99394.34;4863334;29;20276;-80
2022/09/27 04:55:46;;;;;;;6.50;1.65;;;;;;;9.24;100.00;99394.38;4836204;29;20520;-81
2022/09/27 04:58:14;;;;;;;6.00;1.35;;;;;;;9.21;100.00;99383.06;4864403;29;20063;-80
2022/09/27 05:00:44;;;;;;;3.05;1.27;;;;;;;9.20;100.00;99391.84;4866840;29;20530;-79
2022/09/27 05:03:41;;;;;;;7.20;1.45;;;;;;;9.19;100.00;99396.22;4872005;29;20509;-80
2022/09/27 05:06:12;;;;;;;4.93;1.15;;;;;;;9.17;100.00;99404.13;4876467;29;20268;-79
2022/09/27 05:08:41;;;;;;;1.88;1.02;;;;;;;9.17;100.00;99408.53;4881886;29;20036;-79
2022/09/27 05:11:30;;;;;;;5.75;1.95;;;;;;;9.17;100.00;99408.53;4877506;29;20273;-80
2022/09/27 05:14:17;;;;;;;3.67;2.25;;;;;;;9.14;100.00;99409.44;4863448;29;20048;-79
2022/09/27 05:17:02;;;;;;;4.40;1.45;;;;;;;9.10;100.00;99415.63;4864273;29;20036;-81
2022/09/27 05:19:46;;;;;;;2.25;1.08;;;;;;;9.08;100.00;99417.41;4849555;29;20043;-81
2022/09/27 05:22:20;;;;;;;3.83;1.42;;;;;;;9.07;100.00;99417.41;4858922;29;20258;-81
2022/09/27 05:24:48;;;;;;;5.95;1.42;;;;;;;9.07;100.00;99422.66;4872294;29;20501;-81
2022/09/27 05:27:19;;;;;;;5.90;1.20;;;;;;;9.08;100.00;99422.66;4859867;29;20373;-81
2022/09/27 05:29:47;;;;;;;;;;;;;;;9.07;100.00;99417.41;4837057;29;20040;-81
2022/09/27 05:32:22;;;;;;;8.90;1.55;;;;;;;9.05;100.00;99413.94;4858840;29;19922;-80
2022/09/27 05:35:01;;;;;;;3.05;0.90;;;;;;;9.05;100.00;99416.56;4847323;29;20052;-81
2022/09/27 05:37:30;;;;;;;9.80;1.10;;;;;;;9.04;100.00;99407.81;4848422;29;20044;-80
2022/09/27 05:39:58;;;;;;;3.63;1.40;;;;;;;9.04;100.00;99407.81;4855524;29;20051;-79
2022/09/27 05:42:38;;;;;;;5.25;0.82;;;;;;;9.03;100.00;99408.69;4868027;29;20051;-80
2022/09/27 05:45:07;;;;;;;2.92;1.42;;;;;;;9.01;100.00;99410.47;4870831;29;20251;-80
2022/09/27 05:47:36;;;;;;;6.55;1.55;;;;;;;9.02;100.00;99413.97;4890861;29;20036;-80
2022/09/27 05:50:08;;;;;;;7.63;1.30;;;;;;;9.00;100.00;99421.00;4910505;29;20076;-81
2022/09/27 05:52:37;;;;;;;8.40;1.40;;;;;;;9.00;100.00;99426.25;4872597;29;20397;-80
2022/09/27 05:55:07;;;;;;;3.73;1.10;;;;;;;9.00;100.00;99432.41;4822294;29;20271;-80
2022/09/27 05:57:35;;;;;;;4.15;0.80;;;;;;;8.97;100.00;99420.16;4880900;29;20528;-80
2022/09/27 06:00:08;;;;;;;1.63;1.05;;;;;;;8.96;100.00;99420.22;4871508;29;20067;-81
2022/09/27 06:02:40;;;;;;;1.60;0.73;;;;;;;8.94;100.00;99417.59;4879687;29;20032;-79
2022/09/27 06:05:29;;;;;;;4.97;1.00;;;;;;;8.93;100.00;99426.34;4891234;29;20410;-81
2022/09/27 06:08:18;;;;;;;4.13;1.10;;;;;;;8.93;100.00;99417.59;4885540;29;20860;-80
2022/09/27 06:10:51;;;;;;;1.77;0.88;;;;;;;8.94;100.00;99430.72;4859565;29;20047;-80
2022/09/27 06:13:20;;;;;;;;;;;;;;;8.95;100.00;99426.34;4844358;29;20513;-80
2022/09/27 06:15:51;;;;;;;4.57;1.63;;;;;;;8.96;100.00;99422.84;4889067;29;20391;-82
2022/09/27 06:18:21;;;;;;;5.05;1.02;;;;;;;8.96;100.00;99415.81;4885431;29;20052;-81
2022/09/27 06:20:51;;;;;;;6.10;1.10;;;;;;;8.98;100.00;99424.53;4894247;29;20537;-80
2022/09/27 06:23:21;;;;;;;5.50;1.10;;;;;;;9.01;100.00;99425.38;4873272;29;20048;-78
2022/09/27 06:25:52;;;;;;;1.10;0.90;;;;;;;9.02;100.00;99424.47;4858967;29;20059;-80
2022/09/27 06:28:37;;;;;;;4.10;1.30;;;;;;;9.04;100.00;99434.09;4887363;29;20041;-80
2022/09/27 06:31:10;;;;;;;4.65;1.00;;;;;;;9.08;100.00;99430.53;4856745;29;20330;-80
2022/09/27 06:33:49;;;;;;;8.43;1.30;;;;;;;9.11;100.00;99434.88;4885979;29;20041;-81
2022/09/27 06:36:18;;;;;;;4.40;1.20;;;;;;;9.13;100.00;99435.72;4909666;29;20342;-80
2022/09/27 06:38:48;;;;;;;1.77;1.02;;;;;;;9.13;100.00;99433.09;4877145;29;20048;-79
2022/09/27 06:41:36;;;;;;;7.75;1.30;;;;;;;9.13;100.00;99444.50;4842951;29;20056;-79
2022/09/27 06:44:10;;;;;;;2.72;0.93;;;;;;;9.14;100.00;99445.34;4846830;29;20328;-77
2022/09/27 06:47:17;;;;;;;2.22;0.80;;;;;;;9.16;100.00;99444.44;4913264;29;21277;-80
2022/09/27 06:49:54;;;;;;;5.95;1.08;;;;;;;9.20;100.00;99450.53;4904366;29;20512;-81
2022/09/27 06:52:26;;;;;;;2.22;0.90;;;;;;;9.23;100.00;99455.75;4897742;29;20056;-79
2022/09/27 06:54:54;;;;;;;2.67;1.33;;;;;;;9.28;100.00;99458.28;4850278;29;20075;-80
2022/09/27 07:00:22;;;;;;;3.45;1.08;;;;;;;9.38;100.00;99477.47;4903550;29;20406;-80
2022/09/27 07:03:03;;;;;;;7.13;0.90;;;;;;;9.42;100.00;99481.78;4890778;29;20051;-81
2022/09/27 07:05:53;;;;;;;;;;;;;;;9.44;100.00;99491.38;4884006;29;20402;-81
2022/09/27 07:08:43;;;;;;;2.83;1.02;;;;;;;9.44;100.00;99483.50;4917966;29;19930;-80
2022/09/27 07:11:14;;;;;;;2.28;0.82;;;;;;;9.42;100.00;99485.28;4870953;29;20037;-81
2022/09/27 07:13:43;;;;;;;3.88;1.05;;;;;;;9.41;100.00;99485.28;4838405;29;20504;-81
2022/09/27 07:16:12;;;;;;;1.55;0.90;;;;;;;9.41;100.00;99490.56;4905320;29;20067;-81
2022/09/27 07:18:42;;;;;;;2.25;0.70;;;;;;;9.39;100.00;99494.97;4894687;29;20040;-80
2022/09/27 07:21:11;;;;;;;2.45;0.80;;;;;;;9.38;100.00;99502.00;4871023;29;20059;-81
2022/09/27 07:23:40;;;;;;;2.63;1.00;;;;;;;9.38;100.00;99501.13;4878976;29;20063;-81
2022/09/27 07:26:10;;;;;;;4.25;0.75;;;;;;;9.35;100.00;99497.63;4853402;29;21484;-81
2022/09/27 07:28:40;;;;;;;5.32;1.02;;;;;;;9.34;100.00;99495.91;4868834;29;20036;-80
2022/09/27 07:31:12;;;;;;;1.25;0.60;;;;;;;9.35;100.00;99495.00;4830972;29;20291;-81
2022/09/27 07:33:41;;;;;;;0.60;0.60;;;;;;;9.35;100.00;99496.75;4880116;29;20040;-81
2022/09/27 07:36:12;;;;;;;4.07;1.03;;;;;;;9.33;100.00;99486.25;4871847;29;20221;-83
2022/09/27 07:38:43;;;;;;;4.45;0.70;;;;;;;9.32;100.00;99491.56;4891038;29;20044;-80
2022/09/27 07:41:13;;;;;;;2.67;0.95;;;;;;;9.31;100.00;99489.81;4875645;29;20063;-80
2022/09/27 07:43:44;;;;;;;3.65;0.80;;;;;;;9.31;100.00;99495.94;4862538;29;20393;-82
2022/09/27 07:46:14;;;;;;;3.10;1.08;;;;;;;9.29;100.00;99508.22;4897503;29;20036;-79
2022/09/27 07:48:51;;;;;;;2.55;0.85;;;;;;;9.27;100.00;99493.38;4877855;29;20052;-82
2022/09/27 07:51:38;;;;;;;2.15;0.90;;;;;;;9.24;100.00;99501.28;4888602;29;20497;-80
2022/09/27 07:54:39;;;;;;;5.88;1.30;;;;;;;9.22;100.00;99503.06;4869687;29;20052;-81
2022/09/27 07:57:15;;;;;;;4.55;0.85;;;;;;;9.23;100.00;99508.31;4848830;29;20267;-84
2022/09/27 07:59:48;;;;;;;6.90;1.58;;;;;;;9.23;100.00;99503.06;4852655;29;20525;-78
2022/09/27 08:02:20;;;;;;;2.88;0.98;;;;;;;9.25;100.00;99505.69;4894310;29;20255;-80
2022/09/27 08:04:50;;;;;;;4.60;1.08;;;;;;;9.27;100.00;99517.03;4896859;29;20055;-81
2022/09/27 08:07:19;;;;;;;8.02;2.10;;;;;;;9.26;100.00;99512.66;4897290;29;20600;-80
2022/09/27 08:09:52;;;;;;;3.08;0.90;;;;;;;9.25;100.00;99506.53;4897114;29;20052;-83
2022/09/27 08:12:21;;;;;;;4.28;1.10;;;;;;;9.26;100.00;99512.66;4880696;29;20044;-80
2022/09/27 08:14:51;;;;;;;3.00;1.15;;;;;;;9.30;100.00;99511.72;4853588;29;20045;-83
2022/09/27 08:17:19;;;;;;;3.78;1.17;;;;;;;9.34;100.00;99511.69;4862827;29;20168;-80
2022/09/27 08:20:23;;;;;;;3.33;1.23;;;;;;;9.44;100.00;99512.41;4854853;29;20277;-80
2022/09/27 08:23:18;;;;;;;7.63;1.60;;;;;;;9.71;100.00;99511.16;4884448;29;20267;-82
2022/09/27 08:25:58;;;;;;;2.92;1.00;;;;;;;9.98;100.00;99516.03;4889172;29;20059;-81
2022/09/27 08:28:30;;;;;;;2.53;1.23;;;;;;;10.19;100.00;99505.16;4889258;29;20040;-81
2022/09/27 08:31:04;;;;;;;5.78;1.42;;;;;;;10.27;100.00;99520.84;4854766;29;20055;-81
2022/09/27 08:33:33;;;;;;;3.35;1.10;;;;;;;10.35;100.00;99513.69;4894115;29;20526;-80
2022/09/27 08:36:12;;;;;;;3.10;1.33;;;;;;;10.48;100.00;99523.13;4893011;29;20224;-80
2022/09/27 08:38:41;;;;;;;4.57;1.58;;;;;;;10.60;100.00;99521.16;4880508;29;20048;-81
2022/09/27 08:41:14;;;;;;;4.60;1.58;;;;;;;10.74;100.00;99537.59;4875667;29;20040;-81
2022/09/27 08:44:07;;;;;;;5.07;1.50;;;;;;;10.80;100.00;99531.34;4915439;29;20044;-81
2022/09/27 08:46:53;;;;;;;3.40;1.20;;;;;;;10.88;100.00;99527.66;4855007;29;20059;-81
2022/09/27 08:49:32;;;;;;;8.30;1.00;;;;;;;11.00;100.00;99526.56;4901155;29;20574;-81
2022/09/27 08:52:05;;;;;;;8.88;1.20;;;;;;;11.10;100.00;99527.25;4885891;29;20393;-82
2022/09/27 08:54:35;;;;;;;5.63;1.10;;;;;;;11.24;100.00;99534.88;4893165;29;20048;-81
2022/09/27 08:57:10;;;;;;;7.78;1.35;;;;;;;11.44;100.00;99540.59;4879747;29;21335;-82
2022/09/27 09:00:02;;;;;;;2.45;1.15;;;;;;;11.65;100.00;99531.34;4884690;29;20032;-81
2022/09/27 09:02:39;;;;;;;3.28;1.10;;;;;;;11.86;100.00;99523.84;4865932;29;20051;-81
2022/09/27 09:05:19;;;;;;;4.07;1.08;;;;;;;11.96;100.00;99535.94;4875918;29;20040;-81
2022/09/27 09:07:58;;;;;;;3.13;0.95;;;;;;;11.99;100.00;99530.59;4883308;29;20024;-81
2022/09/27 09:13:47;;;;;;;0.93;0.88;;;;;;;11.87;100.00;99544.03;4908917;29;20044;-81
2022/09/27 09:16:41;;;;;;;3.60;1.15;;;;;;;11.79;100.00;99548.63;4890967;29;20164;-81
2022/09/27 09:19:31;;;;;;;4.50;1.52;;;;;;;11.75;100.00;99549.63;4865582;29;20668;-80
2022/09/27 09:22:37;;;;;;;2.95;0.80;;;;;;;11.70;100.00;99547.94;4898670;29;20263;-81
2022/09/27 09:25:34;;;;;;;5.10;0.88;;;;;;;11.82;100.00;99540.66;4849962;29;20059;-80
2022/09/27 09:28:42;;;;;;;0.82;0.70;;;;;;;11.95;100.00;99541.28;4883269;29;20187;-81
2022/09/27 09:31:26;;;;;;;4.63;1.30;;;;;;;12.05;100.00;99527.81;4866295;29;21737;-82
2022/09/27 09:34:02;;;;;;;3.33;1.05;;;;;;;12.17;100.00;99536.34;4873023;29;20067;-81
2022/09/27 09:36:46;;;;;;;4.20;1.00;;;;;;;12.19;100.00;99542.44;4909290;29;20151;-80
2022/09/27 09:39:38;;;;;;;3.45;0.93;;;;;;;12.03;100.00;99548.09;4887084;29;20039;-80
2022/09/27 09:42:24;;;;;;;2.42;0.65;;;;;;;11.81;100.00;99545.06;4868835;29;20623;-80
2022/09/27 09:45:15;;;;;;;3.88;0.70;;;;;;;11.63;100.00;99548.97;4875028;29;20037;-80
2022/09/27 09:48:03;;;;;;;1.65;0.75;;;;;;;11.46;100.00;99553.75;4887989;29;20071;-81
2022/09/27 09:50:55;;;;;;;5.13;0.80;;;;;;;11.35;100.00;99553.13;4894657;29;20036;-80
2022/09/27 09:53:41;;;;;;;4.85;0.98;;;;;;;11.26;100.00;99527.78;4895904;29;20319;-81
2022/09/27 09:56:33;;;;;;;3.22;1.30;;;;;;;11.18;100.00;99529.72;4883487;29;20036;-80
2022/09/27 09:59:18;;;;;;;5.30;1.13;;;;;;;11.11;100.00;99539.50;4884417;29;20071;-83
2022/09/27 10:01:54;;;;;;;1.88;0.75;;;;;;;11.08;100.00;99540.44;4889888;29;20047;-80
2022/09/27 10:04:26;;;;;;;2.25;0.70;;;;;;;11.08;100.00;99545.72;4876249;29;20036;-80
2022/09/27 10:07:00;;;;;;;2.97;0.80;;;;;;;11.09;100.00;99542.16;4891695;29;20128;-81
2022/09/27 10:09:33;;;;;;;5.35;0.80;;;;;;;11.12;100.00;99551.81;4904763;29;20048;-81
2022/09/27 10:12:34;;;;;;;1.90;0.70;;;;;;;11.12;100.00;99549.19;4876064;29;20050;-80
2022/09/27 10:15:04;;;;;;;;;;;;;;;11.07;100.00;99551.03;4886061;29;20052;-80
2022/09/27 10:17:41;;;;;;;2.03;0.80;;;;;;;11.06;100.00;99550.16;4904482;29;20373;-81
2022/09/27 10:20:21;;;;;;;3.08;0.80;;;;;;;11.07;100.00;99549.25;4864083;29;20036;-81
2022/09/27 10:22:54;;;;;;;0.40;0.40;;;;;;;11.09;100.00;99549.22;4911459;29;20063;-81
2022/09/27 10:25:59;;;;;;;1.10;1.02;;;;;;;11.12;100.00;99562.34;4888404;29;20037;-81
2022/09/27 10:28:43;;;;;;;1.77;0.73;;;;;;;11.11;100.00;99565.88;4867063;29;20421;-79
2022/09/27 10:31:16;;;;;;;3.00;1.38;;;;;;;11.07;100.00;99562.44;4876892;29;20078;-80
2022/09/27 10:34:16;;;;;;;4.03;0.85;;;;;;;11.04;100.00;99569.53;4866804;29;20064;-79
2022/09/27 10:37:03;;;;;;;7.88;4.60;;;;;;;11.00;100.00;99566.09;4908445;29;20075;-80
2022/09/27 10:39:34;;;;;;;2.97;1.77;;;;;;;10.99;100.00;99579.31;4876711;29;20106;-79
2022/09/27 10:42:21;;;;;;;0.70;0.63;;;;;;;10.99;100.00;99571.41;4881648;29;20048;-82
2022/09/27 10:44:50;;;;;;;4.25;0.85;;;;;;;10.98;100.00;99590.72;4865788;29;20049;-81
2022/09/27 10:47:30;;;;;;;0.50;0.50;;;;;;;10.92;100.00;99587.31;4870560;29;20075;-80
2022/09/27 10:50:25;;;;;;;2.38;0.68;;;;;;;10.86;100.00;99589.19;4846899;29;21221;-81
2022/09/27 10:53:24;;;;;;;2.00;0.70;;;;;;;10.80;100.00;99576.13;4909034;29;20183;-80
2022/09/27 10:56:01;;;;;;;2.05;0.60;;;;;;;10.76;100.00;99580.59;4881920;29;20367;-81
2022/09/27 10:58:33;;;;;;;1.65;0.70;;;;;;;10.69;100.00;99582.44;4900122;29;20044;-80
2022/09/27 11:01:07;;;;;;;0.93;0.68;;;;;;;10.63;100.00;99582.56;4860498;29;20406;-81
2022/09/27 11:04:23;;;;;;;1.35;0.80;;;;;;;10.58;100.00;99559.84;4893249;29;20056;-80
2022/09/27 11:07:06;;;;;;;2.47;0.80;;;;;;;10.50;100.00;99566.09;4849613;29;20075;-80
2022/09/27 11:09:54;;;;;;;3.70;0.80;;;;;;;10.52;100.00;99568.72;4887202;29;20040;-81
2022/09/27 11:12:25;;;;;;;1.65;0.90;;;;;;;10.57;100.00;99568.63;4880636;29;20056;-81
2022/09/27 11:14:58;;;;;;;2.97;0.90;;;;;;;10.58;100.00;99565.09;4877835;29;20080;-81
2022/09/27 11:17:39;;;;;;;0.70;0.70;;;;;;;10.60;100.00;99569.44;4898974;29;20051;-80
2022/09/27 11:20:32;;;;;;;2.22;0.95;;;;;;;10.72;100.00;99563.09;4900008;29;20044;-81
2022/09/27 11:23:22;;;;;;;3.45;0.70;;;;;;;10.78;100.00;99544.53;4892841;29;20627;-80
2022/09/27 11:26:16;;;;;;;0.50;0.50;;;;;;;10.77;100.00;99537.53;4890005;29;20044;-80
2022/09/27 11:28:56;;;;;;;1.92;0.70;;;;;;;10.81;100.00;99543.59;4912558;29;20394;-80
2022/09/27 11:32:12;;;;;;;2.58;0.63;;;;;;;10.80;100.00;99552.44;4890845;29;20097;-81
2022/09/27 11:35:25;;;;;;;0.73;0.60;;;;;;;10.79;100.00;99559.44;4867707;29;20059;-81
2022/09/27 11:38:16;;;;;;;1.30;0.68;;;;;;;10.87;100.00;99552.28;4866020;29;20155;-81
2022/09/27 11:41:36;;;;;;;1.48;0.90;;;;;;;11.08;100.00;99547.50;4899404;29;20520;-80
2022/09/27 11:44:40;;;;;;;1.25;0.85;;;;;;;11.25;100.00;99540.13;4915333;29;20067;-80
2022/09/27 11:47:25;;;;;;;1.33;0.60;;;;;;;11.39;100.00;99542.44;4873314;29;20036;-79
2022/09/27 11:50:17;;;;;;;3.30;1.00;;;;;;;11.48;100.00;99546.69;4886858;29;20922;-80
2022/09/27 11:52:55;;;;;;;5.60;0.90;;;;;;;11.49;100.00;99545.75;4861677;29;20399;-80
2022/09/27 11:55:42;;;;;;;3.00;1.00;;;;;;;11.53;100.00;99547.47;4883125;29;20051;-80
2022/09/27 11:58:34;;;;;;;1.05;0.50;;;;;;;11.58;100.00;99552.63;4909377;29;20052;-80
2022/09/27 12:01:31;;;;;;;2.28;0.68;;;;;;;11.63;100.00;99563.94;4896156;29;20036;-80
2022/09/27 12:04:12;;;;;;;1.30;0.60;;;;;;;11.74;100.00;99567.22;4879206;29;20716;-79
2022/09/27 12:07:20;;;;;;;1.67;0.82;;;;;;;11.93;100.00;99559.78;4857682;29;20048;-79
2022/09/27 12:09:56;;;;;;;0.60;0.60;;;;;;;11.98;100.00;99568.47;4864044;29;20067;-80
2022/09/27 12:12:30;;;;;;;2.88;0.40;;;;;;;11.99;100.00;99575.50;4863225;29;20056;-81
2022/09/27 12:15:05;;;;;;;0.95;0.50;;;;;;;11.99;100.00;99578.13;4892543;29;20264;-81
2022/09/27 12:17:41;;;;;;;1.35;0.50;;;;;;;11.93;100.00;99578.28;4900293;29;20036;-81
2022/09/27 12:20:24;;;;;;;1.60;0.60;;;;;;;11.75;100.00;99592.69;4914609;29;20051;-81
2022/09/27 12:23:01;;;;;;;0.30;0.30;;;;;;;11.56;100.00;99594.00;4860598;29;20421;-81
2022/09/27 12:26:02;;;;;;;0.65;0.63;;;;;;;11.37;100.00;99585.59;4910526;29;20055;-81
2022/09/27 12:28:54;;;;;;;0.43;0.43;;;;;;;11.32;100.00;99581.28;4883098;29;20044;-81
2022/09/27 12:31:29;;;;;;;1.27;0.70;;;;;;;11.41;100.00;99582.84;4882605;29;20048;-81
2022/09/27 12:34:04;;;;;;;0.75;0.40;;;;;;;11.43;100.00;99580.19;4897459;29;20296;-81
2022/09/27 12:36:42;;;;;;;0.88;0.50;;;;;;;11.43;100.00;99582.81;4899754;29;20048;-82
2022/09/27 12:39:41;;;;;;;0.47;0.40;;;;;;;11.47;100.00;99581.84;4870403;29;20409;-81